ITY9925 LIMF-EHAM
Flight info
| Callsign | ITY9925 |
|---|---|
| Flight time | 0h 36m |
| Altitude | 38000 |
| Route | IXUSA1X/36 IXUSA DCT AOSTA DCT ORSUD DCT MOLUS DCT GILIR DCT PENDU DCT IXILU DCT GIVOR DCT SORAL DCT IBERA DCT DEMUL M624 BUB Y28 HELEN HELEN2A |
| Aircraft | A320/L-V/N |
Departure
| Time | 2026-04-27 19:05 |
|---|---|
| Airport | Turin Airport (LIMF) |
Arrival
| Time | 2026-04-27 19:42 |
|---|---|
| Airport | Amsterdam Airport Schiphol (EHAM) |
| Time | Latitude | Longitude | Altitude | Speed | Heading |
|---|---|---|---|---|---|
| 2026-04-27 18:43 | 45.19165 | 7.64525 | 986 ft | 0 kts | 256° |
| 2026-04-27 18:58 | 45.19165 | 7.64528 | 986 ft | 2 kts | 256° |
| 2026-04-27 18:58 | 45.19168 | 7.64543 | 993 ft | 2 kts | 255° |
| 2026-04-27 18:58 | 45.19173 | 7.64573 | 990 ft | 2 kts | 257° |
| 2026-04-27 18:58 | 45.19177 | 7.64595 | 992 ft | 2 kts | 259° |
| 2026-04-27 18:59 | 45.19180 | 7.64618 | 990 ft | 2 kts | 262° |
| 2026-04-27 18:59 | 45.19182 | 7.64641 | 987 ft | 2 kts | 262° |
| 2026-04-27 18:59 | 45.19187 | 7.64663 | 988 ft | 2 kts | 208° |
| 2026-04-27 18:59 | 45.19203 | 7.64665 | 991 ft | 2 kts | 188° |
| 2026-04-27 19:00 | 45.19216 | 7.64664 | 986 ft | 1 kts | 198° |
| 2026-04-27 19:00 | 45.19217 | 7.64663 | 986 ft | 0 kts | 207° |
| 2026-04-27 19:02 | 45.19208 | 7.64662 | 986 ft | 3 kts | 182° |
| 2026-04-27 19:03 | 45.19160 | 7.64658 | 986 ft | 10 kts | 185° |
| 2026-04-27 19:03 | 45.19067 | 7.64651 | 986 ft | 14 kts | 182° |
| 2026-04-27 19:03 | 45.18972 | 7.64684 | 988 ft | 12 kts | 124° |
| 2026-04-27 19:03 | 45.18967 | 7.64745 | 985 ft | 0 kts | 90° |
| 2026-04-27 19:04 | 45.18967 | 7.64760 | 985 ft | 5 kts | 91° |
| 2026-04-27 19:04 | 45.18976 | 7.64862 | 987 ft | 15 kts | 58° |
| 2026-04-27 19:04 | 45.19032 | 7.64895 | 983 ft | 6 kts | 360° |
| 2026-04-27 19:05 | 45.19333 | 7.64901 | 983 ft | 82 kts | 6° |
| 2026-04-27 19:05 | 45.19812 | 7.64944 | 981 ft | 125 kts | 2° |
| 2026-04-27 19:05 | 45.20857 | 7.65024 | 1110 ft | 164 kts | 4° |
| 2026-04-27 19:05 | 45.22015 | 7.65133 | 1738 ft | 170 kts | 4° |
| 2026-04-27 19:06 | 45.23225 | 7.65221 | 2427 ft | 176 kts | 2° |
| 2026-04-27 19:06 | 45.24450 | 7.65281 | 3098 ft | 176 kts | 1° |
| 2026-04-27 19:06 | 45.25682 | 7.65371 | 3739 ft | 178 kts | 10° |
| 2026-04-27 19:06 | 45.26873 | 7.65979 | 4216 ft | 194 kts | 32° |
| 2026-04-27 19:07 | 45.27965 | 7.67345 | 4855 ft | 225 kts | 52° |
| 2026-04-27 19:07 | 45.28727 | 7.69554 | 5013 ft | 281 kts | 81° |
| 2026-04-27 19:07 | 45.28543 | 7.72323 | 5006 ft | 278 kts | 109° |
| 2026-04-27 19:07 | 45.27716 | 7.74763 | 4997 ft | 273 kts | 121° |
| 2026-04-27 19:08 | 45.26721 | 7.77015 | 4999 ft | 273 kts | 123° |
| 2026-04-27 19:08 | 45.25696 | 7.79321 | 5620 ft | 276 kts | 122° |
| 2026-04-27 19:08 | 45.24568 | 7.81542 | 6614 ft | 278 kts | 130° |
| 2026-04-27 19:08 | 45.23343 | 7.83694 | 7504 ft | 282 kts | 128° |
| 2026-04-27 19:09 | 45.22161 | 7.85902 | 8373 ft | 286 kts | 126° |
| 2026-04-27 19:09 | 45.20967 | 7.88221 | 9274 ft | 290 kts | 125° |
| 2026-04-27 19:09 | 45.19800 | 7.90532 | 10132 ft | 293 kts | 125° |
| 2026-04-27 19:09 | 45.18611 | 7.92911 | 10927 ft | 297 kts | 125° |
| 2026-04-27 19:10 | 45.17402 | 7.95335 | 11713 ft | 302 kts | 125° |
| 2026-04-27 19:10 | 45.16013 | 7.97567 | 12460 ft | 307 kts | 145° |
| 2026-04-27 19:10 | 45.14036 | 7.98659 | 13194 ft | 310 kts | 176° |
| 2026-04-27 19:10 | 45.12612 | 7.98566 | 13690 ft | 311 kts | 192° |
| 2026-04-27 19:11 | 45.09871 | 7.97202 | 14625 ft | 314 kts | 207° |
| 2026-04-27 19:11 | 45.07809 | 7.95697 | 15365 ft | 316 kts | 210° |
| 2026-04-27 19:11 | 45.06214 | 7.84905 | 17844 ft | 331 kts | 296° |
| 2026-04-27 19:11 | 45.09616 | 7.71376 | 18405 ft | 404 kts | 274° |
| 2026-04-27 19:12 | 45.11868 | 7.54903 | 19546 ft | 434 kts | 282° |
| 2026-04-27 19:12 | 45.14062 | 7.38025 | 21376 ft | 438 kts | 279° |
| 2026-04-27 19:12 | 45.17725 | 7.21874 | 22806 ft | 444 kts | 317° |
| 2026-04-27 19:12 | 45.29525 | 7.21294 | 24060 ft | 465 kts | 24° |
| 2026-04-27 19:13 | 45.41698 | 7.28002 | 24765 ft | 466 kts | 359° |
| 2026-04-27 19:13 | 45.54519 | 7.30053 | 25503 ft | 473 kts | 6° |
| 2026-04-27 19:13 | 45.67605 | 7.32592 | 26060 ft | 476 kts | 4° |
| 2026-04-27 19:13 | 45.80703 | 7.32611 | 26472 ft | 468 kts | 336° |
| 2026-04-27 19:14 | 45.91441 | 7.22488 | 27042 ft | 461 kts | 322° |
| 2026-04-27 19:14 | 46.01818 | 7.12028 | 27567 ft | 461 kts | 322° |
| 2026-04-27 19:14 | 46.12258 | 7.01284 | 28083 ft | 461 kts | 322° |
| 2026-04-27 19:14 | 46.22697 | 6.90495 | 28608 ft | 458 kts | 321° |
| 2026-04-27 19:15 | 46.32935 | 6.79885 | 29552 ft | 451 kts | 321° |
| 2026-04-27 19:15 | 46.43139 | 6.69257 | 30131 ft | 451 kts | 321° |
| 2026-04-27 19:15 | 46.54374 | 6.60949 | 30628 ft | 454 kts | 331° |
| 2026-04-27 19:15 | 46.65756 | 6.52902 | 31110 ft | 453 kts | 330° |
| 2026-04-27 19:16 | 46.77110 | 6.44822 | 31609 ft | 452 kts | 330° |
| 2026-04-27 19:16 | 46.84584 | 6.39497 | 31959 ft | 452 kts | 330° |
| 2026-04-27 19:16 | 46.99561 | 6.28802 | 32634 ft | 450 kts | 330° |
| 2026-04-27 19:16 | 47.10818 | 6.20708 | 33183 ft | 447 kts | 329° |
| 2026-04-27 19:17 | 47.21983 | 6.12640 | 33701 ft | 447 kts | 329° |
| 2026-04-27 19:17 | 47.32997 | 6.04758 | 34248 ft | 448 kts | 334° |
| 2026-04-27 19:17 | 47.45716 | 6.03609 | 34785 ft | 463 kts | 355° |
| 2026-04-27 19:17 | 47.58567 | 6.03790 | 35271 ft | 462 kts | 354° |
| 2026-04-27 19:18 | 47.71453 | 6.04065 | 35782 ft | 460 kts | 355° |
| 2026-04-27 19:18 | 47.84118 | 6.07986 | 36301 ft | 468 kts | 8° |
| 2026-04-27 19:18 | 47.96732 | 6.12674 | 36821 ft | 466 kts | 8° |
| 2026-04-27 19:18 | 48.09288 | 6.17437 | 37378 ft | 464 kts | 8° |
| 2026-04-27 19:19 | 48.21813 | 6.22184 | 37931 ft | 461 kts | 8° |
| 2026-04-27 19:19 | 48.34140 | 6.26898 | 38107 ft | 465 kts | 9° |
| 2026-04-27 19:19 | 48.46680 | 6.31720 | 38287 ft | 460 kts | 9° |
| 2026-04-27 19:20 | 48.71840 | 6.39794 | 38081 ft | 460 kts | 358° |
| 2026-04-27 19:20 | 48.84587 | 6.41020 | 37933 ft | 460 kts | 358° |
| 2026-04-27 19:20 | 48.97315 | 6.42337 | 38054 ft | 458 kts | 358° |
| 2026-04-27 19:20 | 49.10060 | 6.43598 | 38235 ft | 453 kts | 354° |
| 2026-04-27 19:21 | 49.22121 | 6.39284 | 38121 ft | 448 kts | 339° |
| 2026-04-27 19:21 | 49.34157 | 6.34417 | 37954 ft | 450 kts | 339° |
| 2026-04-27 19:21 | 49.46187 | 6.29440 | 38075 ft | 445 kts | 339° |
| 2026-04-27 19:21 | 49.57561 | 6.23074 | 38269 ft | 436 kts | 332° |
| 2026-04-27 19:22 | 49.68847 | 6.15833 | 38235 ft | 438 kts | 332° |
| 2026-04-27 19:22 | 49.80136 | 6.08483 | 38040 ft | 443 kts | 332° |
| 2026-04-27 19:22 | 49.91425 | 6.01079 | 37969 ft | 442 kts | 332° |
| 2026-04-27 19:22 | 50.01166 | 5.90509 | 38267 ft | 424 kts | 312° |
| 2026-04-27 19:23 | 50.09799 | 5.77631 | 37090 ft | 431 kts | 312° |
| 2026-04-27 19:23 | 50.18370 | 5.64793 | 34357 ft | 417 kts | 310° |
| 2026-04-27 19:23 | 50.26242 | 5.52892 | 33355 ft | 377 kts | 309° |
| 2026-04-27 19:23 | 50.33578 | 5.41691 | 31430 ft | 368 kts | 308° |
| 2026-04-27 19:24 | 50.40904 | 5.30502 | 29522 ft | 360 kts | 308° |
| 2026-04-27 19:24 | 50.47860 | 5.19831 | 27692 ft | 349 kts | 309° |
| 2026-04-27 19:24 | 50.54720 | 5.09263 | 25958 ft | 340 kts | 310° |
| 2026-04-27 19:24 | 50.61384 | 4.98938 | 24229 ft | 332 kts | 311° |
| 2026-04-27 19:25 | 50.67903 | 4.88802 | 22408 ft | 325 kts | 311° |
| 2026-04-27 19:25 | 50.74275 | 4.78888 | 20740 ft | 317 kts | 311° |
| 2026-04-27 19:25 | 50.80499 | 4.69150 | 19183 ft | 311 kts | 312° |
| 2026-04-27 19:25 | 50.86500 | 4.59699 | 17625 ft | 305 kts | 312° |
| 2026-04-27 19:26 | 50.91865 | 4.49631 | 16084 ft | 296 kts | 299° |
| 2026-04-27 19:26 | 50.96149 | 4.38531 | 14637 ft | 291 kts | 299° |
| 2026-04-27 19:26 | 51.00332 | 4.27652 | 13147 ft | 287 kts | 299° |
| 2026-04-27 19:26 | 51.04465 | 4.16835 | 11563 ft | 285 kts | 300° |
| 2026-04-27 19:27 | 51.08595 | 4.06126 | 9985 ft | 282 kts | 306° |
| 2026-04-27 19:27 | 51.14323 | 3.97902 | 8384 ft | 274 kts | 324° |
| 2026-04-27 19:27 | 51.20388 | 3.90718 | 6752 ft | 269 kts | 324° |
| 2026-04-27 19:27 | 51.27032 | 3.86946 | 5065 ft | 259 kts | 1° |
| 2026-04-27 19:28 | 51.33801 | 3.86760 | 5093 ft | 267 kts | 359° |
| 2026-04-27 19:28 | 51.41067 | 3.86557 | 4993 ft | 250 kts | 360° |
| 2026-04-27 19:28 | 51.48327 | 3.86383 | 5005 ft | 254 kts | 360° |
| 2026-04-27 19:28 | 51.55579 | 3.86221 | 4991 ft | 256 kts | 360° |
| 2026-04-27 19:29 | 51.62787 | 3.86046 | 4987 ft | 258 kts | 360° |
| 2026-04-27 19:29 | 51.69801 | 3.85869 | 4965 ft | 235 kts | 0° |
| 2026-04-27 19:29 | 51.74995 | 3.89747 | 5233 ft | 232 kts | 41° |
| 2026-04-27 19:29 | 51.79750 | 3.96589 | 4989 ft | 213 kts | 41° |
| 2026-04-27 19:30 | 51.81344 | 3.98882 | 5051 ft | 228 kts | 40° |
| 2026-04-27 19:30 | 51.82516 | 4.00572 | 4782 ft | 224 kts | 40° |
| 2026-04-27 19:30 | 51.83684 | 4.02260 | 4365 ft | 225 kts | 41° |
| 2026-04-27 19:30 | 51.84845 | 4.03942 | 4003 ft | 223 kts | 41° |
| 2026-04-27 19:31 | 51.85982 | 4.05586 | 3654 ft | 220 kts | 41° |
| 2026-04-27 19:31 | 51.87116 | 4.07224 | 3390 ft | 218 kts | 41° |
| 2026-04-27 19:31 | 51.88255 | 4.08871 | 3538 ft | 220 kts | 41° |
| 2026-04-27 19:31 | 51.89400 | 4.10526 | 3788 ft | 221 kts | 41° |
| 2026-04-27 19:32 | 51.90560 | 4.12204 | 3965 ft | 228 kts | 41° |
| 2026-04-27 19:32 | 51.91813 | 4.14010 | 4007 ft | 250 kts | 40° |
| 2026-04-27 19:32 | 51.93145 | 4.15870 | 4010 ft | 254 kts | 40° |
| 2026-04-27 19:32 | 51.94492 | 4.17722 | 4011 ft | 254 kts | 40° |
| 2026-04-27 19:33 | 51.95832 | 4.19557 | 4012 ft | 255 kts | 39° |
| 2026-04-27 19:33 | 51.96744 | 4.20808 | 4011 ft | 255 kts | 40° |
| 2026-04-27 19:33 | 51.98533 | 4.23266 | 4011 ft | 254 kts | 39° |
| 2026-04-27 19:33 | 51.99888 | 4.25135 | 4011 ft | 255 kts | 39° |
| 2026-04-27 19:34 | 52.01237 | 4.27002 | 4009 ft | 254 kts | 39° |
| 2026-04-27 19:34 | 52.02583 | 4.28868 | 4010 ft | 255 kts | 40° |
| 2026-04-27 19:34 | 52.03934 | 4.30740 | 4015 ft | 255 kts | 39° |
| 2026-04-27 19:34 | 52.05287 | 4.32614 | 4013 ft | 255 kts | 39° |
| 2026-04-27 19:35 | 52.06616 | 4.34458 | 4014 ft | 254 kts | 39° |
| 2026-04-27 19:35 | 52.07963 | 4.36327 | 3994 ft | 254 kts | 39° |
| 2026-04-27 19:35 | 52.09301 | 4.38187 | 3644 ft | 251 kts | 40° |
| 2026-04-27 19:35 | 52.10624 | 4.40032 | 3201 ft | 250 kts | 40° |
| 2026-04-27 19:36 | 52.11939 | 4.41866 | 2900 ft | 244 kts | 40° |
| 2026-04-27 19:36 | 52.13198 | 4.43624 | 2767 ft | 232 kts | 40° |
| 2026-04-27 19:36 | 52.14394 | 4.45290 | 2637 ft | 221 kts | 40° |
| 2026-04-27 19:36 | 52.15533 | 4.46879 | 2494 ft | 211 kts | 41° |
| 2026-04-27 19:37 | 52.16606 | 4.48380 | 2364 ft | 200 kts | 41° |
| 2026-04-27 19:37 | 52.17637 | 4.49823 | 2234 ft | 191 kts | 41° |
| 2026-04-27 19:37 | 52.18625 | 4.51205 | 2119 ft | 182 kts | 41° |
| 2026-04-27 19:37 | 52.19566 | 4.52525 | 2055 ft | 177 kts | 42° |
| 2026-04-27 19:38 | 52.20486 | 4.53819 | 2003 ft | 175 kts | 43° |
| 2026-04-27 19:38 | 52.21404 | 4.55107 | 2000 ft | 172 kts | 43° |
| 2026-04-27 19:38 | 52.22246 | 4.56486 | 2003 ft | 171 kts | 53° |
| 2026-04-27 19:38 | 52.22902 | 4.58121 | 2013 ft | 172 kts | 59° |
| 2026-04-27 19:39 | 52.23527 | 4.59754 | 1931 ft | 167 kts | 59° |
| 2026-04-27 19:39 | 52.24104 | 4.61253 | 1758 ft | 147 kts | 59° |
| 2026-04-27 19:39 | 52.24641 | 4.62648 | 1586 ft | 144 kts | 58° |
| 2026-04-27 19:39 | 52.25164 | 4.64004 | 1397 ft | 139 kts | 57° |
| 2026-04-27 19:40 | 52.25677 | 4.65333 | 1220 ft | 137 kts | 58° |
| 2026-04-27 19:40 | 52.26184 | 4.66645 | 1035 ft | 136 kts | 57° |
| 2026-04-27 19:40 | 52.26684 | 4.67943 | 837 ft | 135 kts | 57° |
| 2026-04-27 19:40 | 52.27188 | 4.69250 | 666 ft | 137 kts | 57° |
| 2026-04-27 19:41 | 52.27694 | 4.70562 | 479 ft | 139 kts | 55° |
| 2026-04-27 19:41 | 52.28205 | 4.71891 | 312 ft | 137 kts | 57° |
| 2026-04-27 19:41 | 52.28717 | 4.73219 | 160 ft | 137 kts | 56° |
| 2026-04-27 19:41 | 52.29232 | 4.74554 | 39 ft | 137 kts | 56° |
| 2026-04-27 19:42 | 52.29748 | 4.75884 | 16 ft | 142 kts | 57° |
| 2026-04-27 19:42 | 52.30234 | 4.77188 | 13 ft | 91 kts | 58° |
| 2026-04-27 19:42 | 52.30411 | 4.77590 | 17 ft | 18 kts | 41° |
| 2026-04-27 19:42 | 52.30534 | 4.77574 | 16 ft | 9 kts | 329° |
| 2026-04-27 19:43 | 52.30538 | 4.77571 | 16 ft | 0 kts | 330° |
| 2026-04-27 19:46 | 52.30545 | 4.77564 | 15 ft | 7 kts | 331° |
| 2026-04-27 19:46 | 52.30612 | 4.77509 | 14 ft | 9 kts | 334° |
| 2026-04-27 19:46 | 52.30669 | 4.77473 | 12 ft | 12 kts | 341° |
| 2026-04-27 19:46 | 52.30781 | 4.77465 | 10 ft | 20 kts | 4° |
| 2026-04-27 19:47 | 52.30929 | 4.77478 | 13 ft | 23 kts | 2° |
| 2026-04-27 19:47 | 52.31110 | 4.77493 | 10 ft | 24 kts | 3° |
| 2026-04-27 19:47 | 52.31166 | 4.77499 | 11 ft | 1 kts | 3° |
| 2026-04-27 19:47 | 52.31201 | 4.77502 | 12 ft | 8 kts | 0° |
| 2026-04-27 19:48 | 52.31257 | 4.77491 | 11 ft | 12 kts | 333° |
| 2026-04-27 19:48 | 52.31259 | 4.77386 | 7 ft | 5 kts | 214° |
| 2026-04-27 19:48 | 52.31249 | 4.77392 | 8 ft | 3 kts | 154° |
| 2026-04-27 19:48 | 52.31187 | 4.77500 | 12 ft | 18 kts | 163° |
| 2026-04-27 19:49 | 52.31073 | 4.77496 | 10 ft | 17 kts | 179° |
| 2026-04-27 19:49 | 52.30969 | 4.77491 | 13 ft | 13 kts | 184° |
| 2026-04-27 19:49 | 52.30895 | 4.77480 | 13 ft | 4 kts | 184° |
| 2026-04-27 19:49 | 52.30891 | 4.77479 | 13 ft | 0 kts | 184° |
| 2026-04-27 19:50 | 52.30887 | 4.77478 | 13 ft | 2 kts | 185° |
| 2026-04-27 19:50 | 52.30862 | 4.77475 | 12 ft | 4 kts | 185° |
| 2026-04-27 19:50 | 52.30827 | 4.77470 | 11 ft | 6 kts | 185° |
| 2026-04-27 19:50 | 52.30779 | 4.77464 | 10 ft | 8 kts | 185° |
| 2026-04-27 19:51 | 52.30727 | 4.77457 | 10 ft | 7 kts | 185° |
| 2026-04-27 19:51 | 52.30681 | 4.77452 | 11 ft | 6 kts | 183° |
| 2026-04-27 19:51 | 52.30648 | 4.77433 | 11 ft | 4 kts | 215° |
| 2026-04-27 19:51 | 52.30636 | 4.77408 | 11 ft | 5 kts | 235° |
| 2026-04-27 19:52 | 52.30605 | 4.77329 | 9 ft | 8 kts | 237° |
| 2026-04-27 19:52 | 52.30583 | 4.77273 | 9 ft | 9 kts | 238° |
| 2026-04-27 19:52 | 52.30549 | 4.77182 | 8 ft | 9 kts | 238° |
| 2026-04-27 19:52 | 52.30518 | 4.77101 | 8 ft | 8 kts | 238° |
| 2026-04-27 19:53 | 52.30450 | 4.76923 | 7 ft | 9 kts | 238° |
| 2026-04-27 19:53 | 52.30423 | 4.76851 | 8 ft | 5 kts | 238° |
| 2026-04-27 19:53 | 52.30410 | 4.76816 | 9 ft | 3 kts | 238° |
| 2026-04-27 19:54 | 52.30397 | 4.76783 | 10 ft | 4 kts | 238° |
| 2026-04-27 19:54 | 52.30385 | 4.76749 | 9 ft | 3 kts | 238° |
| 2026-04-27 19:54 | 52.30372 | 4.76716 | 10 ft | 4 kts | 239° |
| 2026-04-27 19:54 | 52.30370 | 4.76671 | 10 ft | 2 kts | 283° |
| 2026-04-27 19:55 | 52.30374 | 4.76665 | 10 ft | 3 kts | 307° |
| 2026-04-27 19:55 | 52.30418 | 4.76654 | 8 ft | 5 kts | 16° |
| 2026-04-27 19:55 | 52.30429 | 4.76667 | 10 ft | 1 kts | 30° |
| 2026-04-27 19:55 | 52.30435 | 4.76668 | 9 ft | 0 kts | 9° |